Ituna, Canada
Current Conditions -  °F | °C
As of 12:17 PM on Friday 28 Nov 2014 (Local Time) from CYQV Reporting Station
Overcast Overcast  
Wind Chill: -17°   Ceiling: 4400
Heat Index:   Visibility: 9mi
Dew Point:   Wind: 17mph
Humidity: 85%   Direction: 100°E
Pressure: 29.73"   Gusts: 23mph
Location:  51.17°N, 103.5°W
Report Text: CYQV 281817Z AUTO 10015G20KT 9SM OVC044 M16/M18 A2973 RMK PRESFR SLP111
Loading
Personal Weather Stations






























Interactive Weather Map New forecast layout! Learn more

10-Day Weather Forecast

Advertisements
Track Severe Weather on mobile